Time;durP1;ratioP1;P1;durP2;ratioP2;P2;SDS_P1;SDS_P2;PMS_P1;PMS_P2;Temp;Humidity;BMP_temperature;BMP_pressure;BME280_temperature;BME280_humidity;BME280_pressure;Samples;Min_cycle;Max_cycle;Signal;HPM_P1;HPM_P2
2023/05/27 00:00:45;;;;;;;5.57;3.67;;;12.70;99.90;;;;;;5059202;28;20479;-94
2023/05/27 00:03:12;;;;;;;4.37;3.00;;;12.80;99.90;;;;;;5058755;28;20475;-93
2023/05/27 00:05:38;;;;;;;5.07;3.80;;;12.80;99.90;;;;;;5058540;28;20972;-92
2023/05/27 00:08:05;;;;;;;4.67;3.77;;;12.80;99.90;;;;;;5058839;28;20459;-92
2023/05/27 00:10:32;;;;;;;4.47;3.20;;;12.80;99.90;;;;;;5058727;28;20483;-92
2023/05/27 00:13:00;;;;;;;5.47;3.80;;;12.80;99.90;;;;;;5058911;28;20820;-92
2023/05/27 00:15:27;;;;;;;6.37;3.20;;;12.90;99.90;;;;;;5060298;28;20474;-92
2023/05/27 00:17:54;;;;;;;4.73;3.83;;;12.90;99.90;;;;;;5059710;28;20459;-93
2023/05/27 00:20:22;;;;;;;4.67;3.63;;;12.90;99.90;;;;;;5058916;28;20483;-92
2023/05/27 00:22:50;;;;;;;4.97;3.13;;;12.90;99.90;;;;;;5058389;28;20487;-92
2023/05/27 00:25:20;;;;;;;5.43;3.60;;;13.00;99.90;;;;;;5059198;28;20827;-93
2023/05/27 00:27:47;;;;;;;6.90;3.70;;;13.00;99.90;;;;;;5059375;28;20944;-92
2023/05/27 00:30:15;;;;;;;3.07;2.77;;;13.10;99.90;;;;;;5060221;28;20479;-93
2023/05/27 00:32:42;;;;;;;7.37;3.90;;;13.10;99.90;;;;;;5074805;28;20470;-92
2023/05/27 00:35:10;;;;;;;3.43;2.53;;;13.00;99.90;;;;;;5056699;28;20463;-92
2023/05/27 00:37:36;;;;;;;6.10;3.20;;;13.00;99.90;;;;;;5056814;28;20465;-91
2023/05/27 00:40:04;;;;;;;5.00;2.70;;;13.10;99.90;;;;;;5056012;28;20467;-92
2023/05/27 00:42:31;;;;;;;5.53;2.87;;;13.10;99.90;;;;;;5056196;28;20484;-94
2023/05/27 00:44:59;;;;;;;2.77;2.47;;;13.10;99.90;;;;;;5056239;28;20463;-93
2023/05/27 00:47:32;;;;;;;5.63;2.53;;;13.20;99.90;;;;;;5056705;28;20467;-92
2023/05/27 00:49:58;;;;;;;7.33;3.07;;;13.20;99.90;;;;;;5056353;28;20455;-92
2023/05/27 00:52:25;;;;;;;3.13;2.37;;;13.20;99.90;;;;;;5056448;28;20468;-92
2023/05/27 00:54:53;;;;;;;4.23;2.50;;;13.30;99.90;;;;;;5055732;28;20470;-93
2023/05/27 00:57:20;;;;;;;5.10;3.10;;;13.30;99.90;;;;;;5055838;28;20534;-93
2023/05/27 00:59:47;;;;;;;6.00;3.20;;;13.30;99.90;;;;;;5058764;28;20862;-92
2023/05/27 01:02:14;;;;;;;6.47;3.30;;;13.30;99.90;;;;;;5065724;28;20455;-93
2023/05/27 01:04:46;;;;;;;5.23;2.60;;;13.30;99.90;;;;;;5061185;28;20554;-92
2023/05/27 01:07:18;;;;;;;4.80;2.90;;;13.30;99.90;;;;;;5058701;28;20466;-94
2023/05/27 01:09:50;;;;;;;4.53;2.93;;;13.30;99.90;;;;;;5057542;28;20466;-93
2023/05/27 01:12:23;;;;;;;4.40;2.90;;;13.30;99.90;;;;;;5058323;28;20467;-94
2023/05/27 01:14:52;;;;;;;4.50;2.67;;;13.30;99.90;;;;;;5058129;28;20467;-93
2023/05/27 01:17:19;;;;;;;4.10;2.27;;;13.20;99.90;;;;;;5070996;28;20458;-93
2023/05/27 01:19:50;;;;;;;4.53;2.80;;;13.20;99.90;;;;;;5079892;28;20456;-95
2023/05/27 01:22:19;;;;;;;8.60;3.40;;;13.20;99.90;;;;;;5079928;28;20482;-93
2023/05/27 01:24:47;;;;;;;5.13;2.57;;;13.20;99.90;;;;;;5079906;28;20446;-93
2023/05/27 01:27:15;;;;;;;3.70;2.70;;;13.20;99.90;;;;;;5078299;28;20467;-93
2023/05/27 01:29:42;;;;;;;8.00;2.87;;;13.20;99.90;;;;;;5057369;28;20497;-92
2023/05/27 01:32:15;;;;;;;3.90;2.40;;;13.20;99.90;;;;;;5057565;28;20482;-92
2023/05/27 01:34:45;;;;;;;6.07;3.17;;;13.20;99.90;;;;;;5057255;28;20550;-92
2023/05/27 01:37:14;;;;;;;8.03;3.00;;;13.10;99.90;;;;;;5058426;28;20459;-92
2023/05/27 01:39:43;;;;;;;6.60;3.40;;;13.10;99.90;;;;;;5057472;28;20464;-92
2023/05/27 01:42:11;;;;;;;4.57;2.90;;;13.10;99.90;;;;;;5057369;28;21003;-92
2023/05/27 01:44:39;;;;;;;5.57;2.90;;;13.00;99.90;;;;;;5057081;28;20850;-92
2023/05/27 01:47:05;;;;;;;4.30;2.80;;;13.00;99.90;;;;;;5057291;28;20526;-91
2023/05/27 01:49:32;;;;;;;4.33;2.90;;;12.90;99.90;;;;;;5057511;28;20462;-92
2023/05/27 01:51:59;;;;;;;5.40;2.90;;;12.90;99.90;;;;;;5058945;28;21059;-91
2023/05/27 01:54:26;;;;;;;4.63;2.50;;;12.90;99.90;;;;;;5058087;28;20467;-91
2023/05/27 01:56:53;;;;;;;5.13;2.50;;;12.90;99.90;;;;;;5058851;28;20463;-92
2023/05/27 01:59:21;;;;;;;4.37;2.47;;;12.80;99.90;;;;;;5058604;28;20472;-91
2023/05/27 02:01:48;;;;;;;4.90;3.37;;;12.70;99.90;;;;;;5059159;28;20858;-92
2023/05/27 02:04:14;;;;;;;4.33;2.63;;;12.60;99.90;;;;;;5059506;28;20459;-92
2023/05/27 02:06:41;;;;;;;6.40;2.90;;;12.50;99.90;;;;;;5058667;28;20466;-92
2023/05/27 02:09:10;;;;;;;3.60;2.60;;;12.40;99.90;;;;;;5058372;28;20460;-92
2023/05/27 02:11:37;;;;;;;4.20;2.50;;;12.40;99.90;;;;;;5060601;28;20484;-91
2023/05/27 02:14:05;;;;;;;4.23;2.90;;;12.30;99.90;;;;;;5059496;28;20463;-92
2023/05/27 02:16:33;;;;;;;10.30;3.50;;;12.20;99.90;;;;;;5057593;28;20559;-91
2023/05/27 02:19:00;;;;;;;5.38;2.88;;;12.10;99.90;;;;;;5058096;28;20463;-92
2023/05/27 02:21:27;;;;;;;5.60;3.00;;;12.10;99.90;;;;;;5057882;28;20225;-93
2023/05/27 02:23:54;;;;;;;6.70;3.20;;;12.00;99.90;;;;;;5057797;28;20466;-91
2023/05/27 02:26:21;;;;;;;6.47;2.93;;;11.90;99.90;;;;;;5057893;28;20467;-91
2023/05/27 02:28:48;;;;;;;3.70;2.53;;;11.90;99.90;;;;;;5057944;28;20502;-92
2023/05/27 02:31:15;;;;;;;4.77;2.67;;;11.90;99.90;;;;;;5057527;28;20487;-92
2023/05/27 02:33:43;;;;;;;4.00;2.72;;;11.80;99.90;;;;;;5059874;28;20451;-92
2023/05/27 02:36:10;;;;;;;7.80;3.47;;;11.80;99.90;;;;;;5058601;28;20200;-92
2023/05/27 02:38:37;;;;;;;4.83;2.73;;;11.70;99.90;;;;;;5059338;28;20463;-91
2023/05/27 02:41:04;;;;;;;4.83;2.60;;;11.70;99.90;;;;;;5060296;28;20486;-92
2023/05/27 02:43:31;;;;;;;4.90;2.80;;;11.70;99.90;;;;;;5059016;28;20475;-91
2023/05/27 02:45:58;;;;;;;6.43;3.20;;;11.60;99.90;;;;;;5058111;28;20463;-92
2023/05/27 02:48:24;;;;;;;3.92;3.15;;;11.60;99.90;;;;;;5059025;28;20212;-91
2023/05/27 02:50:53;;;;;;;5.25;2.58;;;11.60;99.90;;;;;;5057015;28;20233;-92
2023/05/27 02:53:19;;;;;;;3.30;2.67;;;11.50;99.90;;;;;;5057186;28;20193;-92
2023/05/27 02:55:46;;;;;;;7.53;3.20;;;11.50;99.90;;;;;;5058432;28;20882;-92
2023/05/27 02:58:13;;;;;;;5.00;2.80;;;11.50;99.90;;;;;;5056953;28;20460;-92
2023/05/27 03:00:41;;;;;;;6.88;2.95;;;11.50;99.90;;;;;;5056621;28;20483;-92
2023/05/27 03:03:07;;;;;;;4.93;3.00;;;11.40;99.90;;;;;;5056530;28;20236;-92
2023/05/27 03:05:34;;;;;;;8.27;2.92;;;11.40;99.90;;;;;;5057389;28;21042;-92
2023/05/27 03:08:02;;;;;;;5.13;2.65;;;11.40;99.90;;;;;;5058345;28;20200;-92
2023/05/27 03:10:29;;;;;;;4.30;2.90;;;11.40;99.90;;;;;;5055643;28;20316;-92
2023/05/27 03:12:56;;;;;;;8.48;3.35;;;11.40;99.90;;;;;;5056351;28;20731;-92
2023/05/27 03:15:23;;;;;;;5.57;3.07;;;11.40;99.90;;;;;;5056415;28;20205;-92
2023/05/27 03:17:49;;;;;;;4.35;3.08;;;11.30;99.90;;;;;;5056958;28;20474;-92
2023/05/27 03:20:18;;;;;;;5.25;2.88;;;11.30;99.90;;;;;;5055896;28;20221;-92
2023/05/27 03:22:45;;;;;;;4.05;2.95;;;11.20;99.90;;;;;;5057182;28;20225;-93
2023/05/27 03:25:14;;;;;;;9.27;3.00;;;11.20;99.90;;;;;;5056291;28;20224;-91
2023/05/27 03:27:41;;;;;;;5.07;2.97;;;11.10;99.90;;;;;;5055625;28;20208;-92
2023/05/27 03:30:09;;;;;;;4.70;3.05;;;11.10;99.90;;;;;;5056521;28;20225;-92
2023/05/27 03:32:36;;;;;;;5.60;2.72;;;11.10;99.90;;;;;;5059353;28;20268;-94
2023/05/27 03:35:02;;;;;;;6.72;3.05;;;11.10;99.90;;;;;;5057458;28;20201;-93
2023/05/27 03:37:29;;;;;;;10.00;4.10;;;11.00;99.90;;;;;;5057800;28;20705;-93
2023/05/27 03:39:57;;;;;;;3.78;2.42;;;11.00;99.90;;;;;;5056557;28;20203;-93
2023/05/27 03:42:25;;;;;;;4.47;2.97;;;10.90;99.90;;;;;;5057231;28;20248;-92
2023/05/27 03:44:52;;;;;;;3.58;2.60;;;10.90;99.90;;;;;;5055817;28;20278;-93
2023/05/27 03:47:20;;;;;;;4.72;2.83;;;10.90;99.90;;;;;;5057962;28;20205;-93
2023/05/27 03:49:47;;;;;;;3.67;2.70;;;10.90;99.90;;;;;;5057069;28;20216;-92
2023/05/27 03:52:14;;;;;;;4.95;2.95;;;10.90;99.90;;;;;;5056690;28;20201;-92
2023/05/27 03:54:41;;;;;;;7.47;3.20;;;11.00;99.90;;;;;;5056209;28;20217;-92
2023/05/27 03:57:08;;;;;;;2.75;2.50;;;10.90;99.90;;;;;;5058486;28;20658;-92
2023/05/27 03:59:37;;;;;;;4.07;3.00;;;11.00;99.90;;;;;;5060361;28;20220;-92
2023/05/27 04:02:04;;;;;;;5.95;2.75;;;10.90;99.90;;;;;;5060897;28;20732;-93
2023/05/27 04:04:31;;;;;;;5.50;3.17;;;11.00;99.90;;;;;;5063250;28;20248;-92
2023/05/27 04:07:01;;;;;;;5.07;2.85;;;11.00;99.90;;;;;;5061504;28;20201;-92
2023/05/27 04:12:24;;;;;;;7.75;2.95;;;11.00;99.90;;;;;;5058964;28;20225;-92
2023/05/27 04:14:56;;;;;;;8.27;3.88;;;11.00;99.90;;;;;;5062210;28;20204;-92
2023/05/27 04:17:26;;;;;;;4.45;2.90;;;11.10;99.90;;;;;;5071346;28;20212;-93
2023/05/27 04:20:13;;;;;;;3.75;2.70;;;11.10;99.90;;;;;;5065069;28;20221;-92
2023/05/27 04:22:43;;;;;;;3.58;2.97;;;11.10;99.90;;;;;;5063524;28;20271;-92
2023/05/27 04:25:10;;;;;;;4.07;2.80;;;11.10;99.90;;;;;;5063978;28;20209;-92
2023/05/27 04:27:37;;;;;;;5.18;2.85;;;11.20;99.90;;;;;;5065306;28;20224;-93
2023/05/27 04:30:06;;;;;;;4.97;3.15;;;11.20;99.90;;;;;;5063741;28;20697;-93
2023/05/27 04:32:37;;;;;;;7.45;2.92;;;11.20;99.90;;;;;;5065710;28;20204;-93
2023/05/27 04:35:05;;;;;;;8.80;3.67;;;11.30;99.90;;;;;;5067480;28;20208;-93
2023/05/27 04:37:32;;;;;;;9.82;4.00;;;11.30;99.90;;;;;;5065761;28;20208;-93
2023/05/27 04:39:59;;;;;;;4.40;3.03;;;11.30;99.90;;;;;;5076547;28;20193;-93
2023/05/27 04:42:25;;;;;;;3.10;2.60;;;11.40;99.90;;;;;;5067966;28;20217;-95
2023/05/27 04:44:52;;;;;;;5.07;3.10;;;11.40;99.90;;;;;;5065839;28;20201;-94
2023/05/27 04:47:20;;;;;;;6.43;3.80;;;11.50;99.90;;;;;;5067244;28;20223;-94
2023/05/27 04:49:48;;;;;;;6.03;2.85;;;11.50;99.90;;;;;;5067704;28;20204;-91
2023/05/27 04:52:15;;;;;;;5.60;3.30;;;11.50;99.90;;;;;;5066264;28;20205;-94
2023/05/27 04:54:42;;;;;;;4.70;3.30;;;11.60;99.90;;;;;;5067428;28;20201;-93
2023/05/27 04:57:09;;;;;;;5.38;3.28;;;11.70;99.90;;;;;;5068546;28;20205;-93
2023/05/27 04:59:58;;;;;;;5.33;3.17;;;11.70;99.90;;;;;;5068363;28;20207;-94
2023/05/27 05:02:34;;;;;;;5.85;2.83;;;11.80;99.90;;;;;;5072763;28;20472;-93
2023/05/27 05:05:01;;;;;;;6.83;2.60;;;11.90;99.90;;;;;;5071118;28;20224;-93
2023/05/27 05:07:28;;;;;;;4.25;3.00;;;11.90;99.90;;;;;;5068971;28;20491;-92
2023/05/27 05:09:55;;;;;;;4.68;3.00;;;12.00;99.90;;;;;;5069479;28;20264;-93
2023/05/27 05:12:22;;;;;;;4.90;3.33;;;12.00;99.90;;;;;;5068677;28;20228;-93
2023/05/27 05:14:48;;;;;;;4.32;3.15;;;12.10;99.90;;;;;;5069593;28;20522;-93
2023/05/27 05:17:15;;;;;;;3.90;2.72;;;12.10;99.90;;;;;;5068715;28;20209;-93
2023/05/27 05:19:44;;;;;;;6.35;3.28;;;12.20;99.90;;;;;;5069116;28;20201;-92
2023/05/27 05:22:12;;;;;;;5.07;3.20;;;12.30;99.90;;;;;;5070540;28;20224;-93
2023/05/27 05:24:39;;;;;;;15.13;4.20;;;12.30;99.90;;;;;;5070085;28;20482;-93
2023/05/27 05:27:07;;;;;;;5.37;3.03;;;12.40;99.90;;;;;;5069992;28;20483;-93
2023/05/27 05:29:43;;;;;;;4.43;2.87;;;12.50;99.90;;;;;;5068931;28;20482;-93
2023/05/27 05:32:11;;;;;;;6.10;3.60;;;12.50;99.90;;;;;;5069113;28;20518;-92
2023/05/27 05:34:38;;;;;;;5.37;3.00;;;12.60;99.90;;;;;;5069576;28;21045;-91
2023/05/27 05:37:06;;;;;;;6.83;2.83;;;12.70;99.90;;;;;;5067568;28;20459;-93
2023/05/27 05:39:41;;;;;;;5.30;2.97;;;12.80;99.90;;;;;;5066437;28;20534;-93
2023/05/27 05:42:13;;;;;;;6.23;3.17;;;12.80;99.90;;;;;;5067772;28;20479;-92
2023/05/27 05:44:52;;;;;;;4.40;2.87;;;12.90;99.90;;;;;;5067207;28;20490;-93
2023/05/27 05:47:19;;;;;;;8.60;4.50;;;13.00;99.90;;;;;;5069995;28;21001;-94
2023/05/27 05:49:46;;;;;;;3.60;3.03;;;13.00;99.90;;;;;;5068012;28;20470;-93
2023/05/27 05:52:14;;;;;;;5.80;3.23;;;13.10;99.90;;;;;;5069720;28;20542;-93
2023/05/27 05:54:41;;;;;;;7.90;3.50;;;13.20;99.90;;;;;;5070561;28;20455;-93
2023/05/27 05:57:07;;;;;;;5.13;2.90;;;13.20;99.90;;;;;;5070622;28;20459;-94
2023/05/27 05:59:34;;;;;;;6.80;3.40;;;13.30;99.90;;;;;;5061610;28;20546;-92
2023/05/27 06:02:01;;;;;;;5.20;3.10;;;13.30;99.90;;;;;;5057267;28;20229;-94
2023/05/27 06:04:28;;;;;;;3.80;3.20;;;13.40;99.90;;;;;;5055883;28;20490;-93
2023/05/27 06:06:55;;;;;;;6.73;2.87;;;13.50;99.90;;;;;;5055424;28;20472;-93
2023/05/27 06:09:24;;;;;;;4.10;2.60;;;13.60;99.90;;;;;;5054583;28;20491;-93
2023/05/27 06:11:51;;;;;;;11.00;3.50;;;13.80;99.90;;;;;;5055240;28;20654;-92
2023/05/27 06:14:18;;;;;;;4.47;2.97;;;13.90;99.90;;;;;;5053847;28;20944;-94
2023/05/27 06:16:45;;;;;;;5.43;2.77;;;13.90;99.90;;;;;;5055629;28;20464;-93
2023/05/27 06:19:12;;;;;;;4.77;2.70;;;14.00;99.90;;;;;;5056106;28;20483;-93
2023/05/27 06:21:39;;;;;;;6.80;3.50;;;14.00;99.90;;;;;;5055584;28;20479;-94
2023/05/27 06:24:06;;;;;;;7.37;3.30;;;14.10;99.90;;;;;;5056085;28;20545;-92
2023/05/27 06:26:34;;;;;;;5.93;3.57;;;14.20;99.90;;;;;;5058473;28;20463;-94
2023/05/27 06:29:01;;;;;;;6.87;3.03;;;14.30;99.90;;;;;;5055240;28;20464;-94
2023/05/27 06:31:28;;;;;;;3.50;2.60;;;14.40;99.90;;;;;;5055340;28;20480;-93
2023/05/27 06:33:55;;;;;;;7.80;2.83;;;14.40;99.90;;;;;;5056121;28;20987;-93
2023/05/27 06:36:22;;;;;;;8.00;3.10;;;14.50;99.90;;;;;;5056012;28;20452;-93
2023/05/27 06:38:49;;;;;;;7.17;3.23;;;14.60;99.90;;;;;;5055264;28;20460;-93
2023/05/27 06:41:16;;;;;;;3.80;2.70;;;14.70;99.90;;;;;;5055420;28;20528;-93
2023/05/27 06:43:44;;;;;;;5.17;2.70;;;14.80;99.90;;;;;;5056643;28;20847;-92
2023/05/27 06:46:11;;;;;;;5.93;2.60;;;14.90;99.90;;;;;;5055979;28;20483;-93
2023/05/27 06:48:37;;;;;;;4.43;2.73;;;15.00;99.90;;;;;;5058356;28;20542;-93
2023/05/27 06:51:06;;;;;;;6.40;3.67;;;15.00;99.90;;;;;;5058780;28;20483;-93
2023/05/27 06:53:33;;;;;;;4.30;2.63;;;15.10;99.90;;;;;;5057258;28;20456;-93
2023/05/27 06:55:59;;;;;;;4.20;2.93;;;15.20;99.90;;;;;;5055277;28;20459;-93
2023/05/27 06:58:26;;;;;;;5.00;3.20;;;15.20;99.90;;;;;;5055482;28;20455;-93
2023/05/27 07:00:54;;;;;;;8.77;3.97;;;15.40;99.90;;;;;;5055203;28;20471;-94
2023/05/27 07:03:21;;;;;;;5.83;3.20;;;15.50;99.90;;;;;;5056094;28;20471;-94
2023/05/27 07:05:48;;;;;;;8.47;3.20;;;15.60;99.90;;;;;;5054743;28;20463;-93
2023/05/27 07:08:15;;;;;;;9.17;3.27;;;15.60;99.90;;;;;;5057408;28;20460;-94
2023/05/27 07:10:42;;;;;;;4.60;2.80;;;15.70;99.90;;;;;;5056285;28;20548;-92
2023/05/27 07:13:13;;;;;;;5.27;3.37;;;15.80;99.90;;;;;;5056824;28;20460;-91
2023/05/27 07:15:40;;;;;;;4.83;3.03;;;15.90;99.90;;;;;;5056887;28;20538;-93
2023/05/27 07:18:08;;;;;;;6.23;3.70;;;15.90;99.90;;;;;;5057354;28;20967;-92
2023/05/27 07:20:35;;;;;;;5.27;3.20;;;16.00;99.90;;;;;;5057399;28;21060;-91
2023/05/27 07:23:02;;;;;;;4.37;2.70;;;16.10;99.90;;;;;;5058393;28;20459;-92
2023/05/27 07:25:29;;;;;;;5.50;3.90;;;16.20;99.90;;;;;;5057491;28;20462;-93
2023/05/27 07:27:55;;;;;;;7.47;3.00;;;16.30;99.90;;;;;;5060000;28;20451;-92
2023/05/27 07:30:22;;;;;;;9.67;3.10;;;16.40;99.90;;;;;;5059035;28;20486;-92
2023/05/27 07:32:50;;;;;;;5.60;3.50;;;16.50;99.90;;;;;;5058459;28;20455;-92
2023/05/27 07:35:18;;;;;;;7.90;4.80;;;16.50;99.90;;;;;;5058936;28;20471;-92
2023/05/27 07:37:45;;;;;;;4.30;3.13;;;16.60;99.90;;;;;;5058402;28;20459;-92
2023/05/27 07:40:12;;;;;;;4.27;3.07;;;16.70;99.90;;;;;;5057295;28;20490;-93
2023/05/27 07:42:39;;;;;;;5.73;2.90;;;16.90;99.90;;;;;;5059540;28;20465;-93
2023/05/27 07:45:07;;;;;;;5.13;3.23;;;16.90;99.90;;;;;;5059196;28;20514;-92
2023/05/27 07:47:33;;;;;;;4.40;2.90;;;17.00;99.90;;;;;;5058221;28;20491;-92
2023/05/27 07:50:00;;;;;;;6.70;3.60;;;17.10;99.90;;;;;;5058598;28;20462;-93
2023/05/27 07:52:28;;;;;;;4.57;3.27;;;17.20;99.90;;;;;;5057512;28;20451;-92
2023/05/27 07:54:57;;;;;;;3.80;3.20;;;17.20;99.90;;;;;;5057535;28;20498;-92
2023/05/27 07:57:24;;;;;;;10.47;3.70;;;17.30;99.90;;;;;;5059531;28;20490;-92
2023/05/27 08:00:01;;;;;;;5.30;3.37;;;17.30;99.90;;;;;;5059634;28;21362;-92
2023/05/27 08:02:34;;;;;;;6.70;3.90;;;17.40;99.90;;;;;;5061547;28;20474;-93
2023/05/27 08:05:01;;;;;;;4.37;3.13;;;17.40;99.90;;;;;;5059700;28;20476;-93
2023/05/27 08:07:29;;;;;;;4.07;2.93;;;17.60;99.90;;;;;;5059134;28;20471;-93
2023/05/27 08:09:56;;;;;;;3.40;2.70;;;17.70;99.90;;;;;;5058855;28;20459;-92
2023/05/27 08:12:23;;;;;;;5.60;3.10;;;17.80;99.90;;;;;;5058898;28;20466;-92
2023/05/27 08:14:50;;;;;;;5.20;3.37;;;17.90;99.90;;;;;;5059092;28;20457;-93
2023/05/27 08:17:17;;;;;;;7.57;3.77;;;17.90;99.90;;;;;;5059304;28;20554;-93
2023/05/27 08:19:44;;;;;;;7.27;3.77;;;18.10;99.90;;;;;;5061656;28;20452;-92
2023/05/27 08:22:11;;;;;;;4.77;3.10;;;18.20;99.90;;;;;;5062367;28;20493;-92
2023/05/27 08:24:39;;;;;;;6.60;3.10;;;18.30;99.90;;;;;;5062548;28;20475;-93
2023/05/27 08:27:06;;;;;;;7.63;3.37;;;18.30;99.90;;;;;;5060515;28;20463;-93
2023/05/27 08:29:33;;;;;;;5.00;3.30;;;18.40;99.90;;;;;;5059907;28;20490;-93
2023/05/27 08:32:00;;;;;;;4.13;2.90;;;18.50;99.90;;;;;;5059911;28;20533;-94
2023/05/27 08:34:27;;;;;;;6.13;3.93;;;18.60;99.90;;;;;;5060060;28;20483;-93
2023/05/27 08:36:54;;;;;;;6.20;3.60;;;18.80;99.90;;;;;;5060300;28;20463;-92
2023/05/27 08:39:21;;;;;;;6.93;4.00;;;18.90;99.90;;;;;;5060001;28;20463;-93
2023/05/27 08:41:49;;;;;;;7.00;3.23;;;19.00;99.90;;;;;;5061457;28;20483;-92
2023/05/27 08:44:17;;;;;;;5.33;3.63;;;19.00;99.90;;;;;;5060566;28;20467;-92
2023/05/27 08:46:45;;;;;;;5.63;3.57;;;19.20;99.90;;;;;;5063484;28;20459;-92
2023/05/27 08:49:27;;;;;;;4.13;3.77;;;19.20;99.90;;;;;;5064888;28;20440;-92
2023/05/27 08:52:00;;;;;;;4.37;3.37;;;19.20;99.90;;;;;;5064362;28;20570;-94
2023/05/27 08:54:28;;;;;;;7.33;3.47;;;19.30;99.90;;;;;;5062424;28;20447;-93
2023/05/27 08:57:20;;;;;;;6.80;3.50;;;19.50;99.90;;;;;;5063658;28;20859;-92
2023/05/27 08:59:47;;;;;;;5.30;3.80;;;19.70;99.90;;;;;;5060319;28;20455;-93
2023/05/27 09:02:39;;;;;;;8.43;3.90;;;19.70;99.90;;;;;;5062425;28;20459;-92
2023/05/27 09:05:07;;;;;;;9.70;3.90;;;19.90;99.90;;;;;;5065364;28;20518;-92
2023/05/27 09:08:03;;;;;;;5.27;3.80;;;20.00;99.90;;;;;;5050212;28;20456;-92
2023/05/27 09:10:47;;;;;;;6.20;4.33;;;20.20;99.90;;;;;;5064445;28;20498;-92
2023/05/27 09:13:35;;;;;;;15.00;7.30;;;20.30;99.90;;;;;;5061780;28;20543;-93
2023/05/27 09:16:05;;;;;;;11.13;6.47;;;20.50;99.90;;;;;;5066050;28;20455;-92
2023/05/27 09:18:59;;;;;;;9.33;3.77;;;20.70;99.90;;;;;;5064304;28;20464;-93
2023/05/27 09:21:27;;;;;;;6.33;4.10;;;20.70;99.90;;;;;;5068134;28;20475;-92
2023/05/27 09:24:37;;;;;;;7.17;4.33;;;20.90;99.90;;;;;;5077355;28;20545;-94
2023/05/27 09:27:07;;;;;;;7.53;4.00;;;21.00;99.90;;;;;;5072557;28;20444;-93
2023/05/27 09:29:52;;;;;;;4.33;3.83;;;21.10;99.90;;;;;;5072811;28;20528;-93
2023/05/27 09:32:53;;;;;;;6.33;3.50;;;21.30;99.90;;;;;;5074400;28;20449;-93
2023/05/27 09:35:20;;;;;;;3.93;3.13;;;21.40;99.90;;;;;;5071440;28;20464;-93
2023/05/27 09:37:47;;;;;;;5.67;3.60;;;21.50;99.90;;;;;;5072312;28;20506;-93
2023/05/27 09:41:00;;;;;;;4.87;3.60;;;21.60;99.90;;;;;;5074046;28;20476;-93
2023/05/27 09:46:42;;;;;;;5.70;3.70;;;22.10;99.90;;;;;;5072915;28;20450;-93
2023/05/27 09:58:47;;;;;;;3.63;3.20;;;22.70;99.90;;;;;;5073847;28;20486;-93
2023/05/27 10:04:35;;;;;;;7.13;4.23;;;23.10;99.40;;;;;;5074148;28;20461;-93
2023/05/27 10:10:39;;;;;;;5.77;3.70;;;23.20;99.90;;;;;;5061914;28;20467;-93
2023/05/27 10:13:42;;;;;;;6.40;3.80;;;23.40;99.90;;;;;;5073338;28;20478;-94
2023/05/27 10:17:02;;;;;;;6.90;3.50;;;23.40;98.80;;;;;;5075224;28;20531;-94
2023/05/27 10:39:38;;;;;;;4.73;3.97;;;23.70;98.90;;;;;;5050906;23;20496;-70
2023/05/27 10:42:05;;;;;;;8.37;4.30;;;24.00;99.90;;;;;;5091116;28;20462;-69
2023/05/27 10:44:34;;;;;;;4.37;3.93;;;24.00;98.40;;;;;;5091027;28;21079;-70
2023/05/27 10:47:03;;;;;;;5.33;3.80;;;23.80;97.40;;;;;;5085861;28;20482;-70
2023/05/27 10:49:36;;;;;;;4.50;3.40;;;23.90;98.60;;;;;;5070522;28;20455;-70
2023/05/27 10:52:10;;;;;;;3.43;3.13;;;24.00;99.70;;;;;;5062637;28;20462;-70
2023/05/27 10:54:39;;;;;;;6.57;4.10;;;24.20;98.60;;;;;;5070925;28;20466;-69
2023/05/27 10:57:07;;;;;;;4.43;4.00;;;24.50;98.70;;;;;;5069847;28;20487;-70
2023/05/27 10:59:41;;;;;;;4.27;3.50;;;24.40;97.50;;;;;;5070302;28;20467;-69
2023/05/27 11:02:08;;;;;;;9.50;3.57;;;24.30;98.20;;;;;;5070887;28;20491;-70
2023/05/27 11:04:35;;;;;;;5.47;3.63;;;24.40;97.90;;;;;;5070683;28;20483;-69
2023/05/27 11:07:03;;;;;;;7.97;3.90;;;24.60;98.70;;;;;;5070644;28;20485;-69
2023/05/27 11:09:30;;;;;;;5.50;3.80;;;24.60;97.00;;;;;;5070096;28;20914;-69
2023/05/27 11:12:02;;;;;;;5.60;3.90;;;24.30;96.40;;;;;;5070632;28;20872;-70
2023/05/27 11:14:29;;;;;;;3.50;3.20;;;24.30;97.70;;;;;;5070776;28;20457;-70
2023/05/27 11:16:55;;;;;;;13.00;4.40;;;24.30;98.50;;;;;;5070737;28;20513;-70
2023/05/27 11:19:22;;;;;;;5.63;4.43;;;24.30;96.30;;;;;;5070231;28;20468;-70
2023/05/27 11:21:49;;;;;;;5.00;3.83;;;24.40;96.50;;;;;;5070304;28;20460;-70
2023/05/27 11:24:17;;;;;;;4.97;3.47;;;24.50;97.70;;;;;;5070438;28;20486;-70
2023/05/27 11:26:46;;;;;;;5.20;3.97;;;24.70;96.50;;;;;;5070613;28;20575;-70
2023/05/27 11:29:14;;;;;;;4.03;3.63;;;24.70;96.60;;;;;;5070581;28;20460;-70
2023/05/27 11:31:41;;;;;;;7.60;4.60;;;24.60;96.10;;;;;;5070430;28;20468;-70
2023/05/27 11:34:14;;;;;;;4.13;3.63;;;24.70;96.50;;;;;;5070613;28;20461;-70
2023/05/27 11:36:41;;;;;;;4.83;3.40;;;24.80;96.80;;;;;;5070264;28;20968;-70
2023/05/27 11:39:12;;;;;;;4.73;3.40;;;25.10;98.00;;;;;;5070036;28;20573;-70
2023/05/27 11:41:49;;;;;;;4.23;3.83;;;25.50;97.00;;;;;;5069754;28;20940;-70
2023/05/27 11:44:18;;;;;;;4.50;4.10;;;25.40;95.10;;;;;;5070389;28;20569;-70
2023/05/27 11:46:46;;;;;;;5.30;4.00;;;25.30;95.20;;;;;;5070287;28;20486;-70
2023/05/27 11:49:14;;;;;;;3.93;3.50;;;25.60;96.50;;;;;;5069890;28;20461;-70
2023/05/27 11:51:42;;;;;;;5.00;3.83;;;25.70;95.70;;;;;;5070132;28;20461;-70
2023/05/27 11:54:18;;;;;;;4.60;3.87;;;25.60;95.20;;;;;;5070581;28;20470;-70
2023/05/27 11:56:45;;;;;;;3.90;3.50;;;25.60;94.70;;;;;;5070656;28;20484;-70
2023/05/27 11:59:11;;;;;;;6.13;4.80;;;25.90;95.30;;;;;;5070506;28;20479;-70
2023/05/27 12:01:39;;;;;;;5.57;3.90;;;26.20;96.00;;;;;;5069960;28;20465;-70
2023/05/27 12:04:06;;;;;;;4.67;3.57;;;26.40;95.40;;;;;;5070231;28;20456;-69
2023/05/27 12:06:33;;;;;;;3.70;3.40;;;26.50;94.20;;;;;;5070067;28;20489;-69
2023/05/27 12:09:00;;;;;;;4.93;4.00;;;26.80;94.70;;;;;;5069548;28;20461;-70
2023/05/27 12:11:26;;;;;;;8.50;3.97;;;26.80;94.60;;;;;;5069959;28;20454;-70
2023/05/27 12:13:54;;;;;;;4.57;3.97;;;26.60;93.90;;;;;;5070011;28;20463;-69
2023/05/27 12:16:21;;;;;;;5.00;3.80;;;26.50;94.50;;;;;;5069984;28;20467;-70
2023/05/27 12:18:50;;;;;;;5.17;3.97;;;26.40;93.30;;;;;;5069493;28;21060;-69
2023/05/27 12:21:17;;;;;;;4.53;3.73;;;26.50;93.90;;;;;;5070173;28;20893;-69
2023/05/27 12:23:44;;;;;;;4.43;3.97;;;26.70;95.70;;;;;;5069806;28;20471;-69
2023/05/27 12:26:12;;;;;;;4.17;3.77;;;26.70;93.70;;;;;;5069923;28;20482;-69
2023/05/27 12:28:39;;;;;;;5.53;3.90;;;26.80;94.00;;;;;;5069997;28;20487;-70
2023/05/27 12:31:06;;;;;;;6.03;3.93;;;27.00;94.60;;;;;;5070019;28;20538;-69
2023/05/27 12:33:33;;;;;;;6.33;3.70;;;27.10;94.80;;;;;;5070034;28;20466;-69
2023/05/27 12:36:02;;;;;;;4.97;4.00;;;27.30;93.40;;;;;;5069981;28;20456;-69
2023/05/27 12:38:29;;;;;;;6.27;4.17;;;27.10;93.00;;;;;;5069809;28;20485;-69
2023/05/27 12:40:56;;;;;;;4.37;3.60;;;26.90;92.50;;;;;;5070245;28;20469;-69
2023/05/27 12:43:23;;;;;;;4.57;4.13;;;26.70;92.90;;;;;;5070729;28;20471;-70
2023/05/27 12:45:50;;;;;;;6.17;4.23;;;26.70;93.00;;;;;;5069929;28;20481;-70
2023/05/27 12:48:18;;;;;;;5.40;3.80;;;26.80;93.10;;;;;;5069797;28;20855;-69
2023/05/27 12:50:45;;;;;;;5.40;4.33;;;26.80;93.80;;;;;;5069578;28;20996;-69
2023/05/27 12:53:13;;;;;;;5.73;4.73;;;26.90;93.10;;;;;;5070783;28;20460;-70
2023/05/27 12:55:40;;;;;;;4.13;3.60;;;26.80;93.80;;;;;;5073136;28;20468;-70
2023/05/27 12:58:06;;;;;;;7.43;4.83;;;26.90;93.30;;;;;;5073737;28;20485;-69
2023/05/27 13:00:34;;;;;;;5.17;3.97;;;27.00;92.70;;;;;;5073189;28;20497;-70
2023/05/27 13:03:01;;;;;;;6.20;4.50;;;27.00;92.80;;;;;;5073484;28;20944;-69
2023/05/27 13:05:27;;;;;;;6.20;4.80;;;27.10;93.10;;;;;;5073282;28;20486;-69
2023/05/27 13:07:56;;;;;;;5.10;4.30;;;27.00;92.00;;;;;;5073323;28;20475;-69
2023/05/27 13:10:24;;;;;;;8.30;5.00;;;26.70;90.90;;;;;;5072611;28;20454;-69
2023/05/27 13:12:51;;;;;;;6.70;5.00;;;26.60;93.50;;;;;;5074057;28;20466;-70
2023/05/27 13:15:19;;;;;;;6.33;5.00;;;26.60;90.50;;;;;;5073087;28;20461;-69
2023/05/27 13:17:45;;;;;;;8.17;5.80;;;26.60;90.10;;;;;;5072971;28;20528;-69
2023/05/27 13:20:13;;;;;;;4.97;4.23;;;26.60;91.80;;;;;;5073128;28;20478;-69
2023/05/27 13:22:40;;;;;;;5.03;4.53;;;26.40;91.20;;;;;;5072949;28;20859;-70
2023/05/27 13:25:07;;;;;;;4.50;4.07;;;26.20;90.40;;;;;;5073046;28;20477;-69
2023/05/27 13:27:36;;;;;;;7.80;5.80;;;26.00;90.50;;;;;;5072892;28;20485;-69
2023/05/27 13:30:03;;;;;;;6.80;4.60;;;26.00;91.00;;;;;;5072729;28;20455;-70
2023/05/27 13:32:30;;;;;;;6.17;4.63;;;26.00;92.10;;;;;;5073431;28;21258;-69
2023/05/27 13:34:56;;;;;;;5.47;4.37;;;26.30;91.10;;;;;;5072821;28;20494;-69
2023/05/27 13:37:23;;;;;;;7.37;5.17;;;26.40;90.40;;;;;;5072616;28;20491;-70